Kecskemet, Hungary

4:39 PM CET on February 11, 2016 (GMT +0100)
LóKapu Major/Nic's Place | | Change Station
CLOSE
Current Station
Personal Weather Station
Location: Ladánybene, BáCS-KISKUN
Elevation: 430 ft
Nearby Weather Stations

Elev 430 ft 47.02 °N, 19.49 °E | Updated 9 seconds ago

Mostly Cloudy
Mostly Cloudy
45.1 °F
Feels Like 44 °F
N
3.6
Wind Variable Wind from NE
Gusts 4.9 mph

Today
High -- | Low -- °F
--% Chance of Precip.
Yesterday
High -- | Low -- °F
Precip. -- in
Pressure 29.77 in
Visibility 6.2 miles
Clouds Mostly Cloudy 4000 ft
Windchill 44 °F
Dew Point 35 °F
Humidity 67%
Rainfall 0.00 in
Snow Depth Not available.
6:52 AM 4:58 PM
Waxing Crescent, 12% visible
METAR LHBP 111530Z 29010KT 9999 BKN040 07/M00 Q1008 NOSIG
Pressure 29.77 in
Visibility 6.2 miles
Clouds Mostly Cloudy 4000 ft
Windchill 44 °F
Dew Point 35 °F
Humidity 67%
Rainfall 0.00 in
Snow Depth Not available.
6:52 AM 4:58 PM
Waxing Crescent, 12% visible
METAR LHBP 111530Z 29010KT 9999 BKN040 07/M00 Q1008 NOSIG

10-Day Weather Forecast

Almanac

Astronomy

Feb. 11, 2016 Rise Set
Actual Time
Civil Twilight
Nautical Twilight
Astronomical Twilight
Moon
Length of Visible Light
Length of Day
Tomorrow will be .
, % of the Moon is Illuminated

Today's Extremes

Country Highs Country Lows

Community

WunderPhotos

Upload Photos

1,892,078 photos uploaded!

WunderBlog® & News

Nearby

Air Quality

  Air Quality AQ Index Pollutant
Not available.

Snow Depth

Station Depth Elevation

Earthquake Activity

City Distance Mag. Time & Date
Minimum magnitude displayed is 2.5.

Coastal Water Temperatures

Place Temperature

Stations

Nearby Weather Stations

Station Location Temp. Windchill Dew Point Humidity Wind Precip. Elev Updated Type